createdAt,value
2018-05-26T00:02:16.339Z,85.50
2018-05-26T00:04:45.323Z,85.50
2018-05-26T00:07:14.298Z,85.60
2018-05-26T00:09:42.518Z,85.60
2018-05-26T00:12:10.737Z,85.60
2018-05-26T00:14:38.949Z,85.70
2018-05-26T00:17:07.925Z,85.70
2018-05-26T00:19:36.183Z,85.60
2018-05-26T00:22:04.410Z,85.90
2018-05-26T00:24:32.636Z,86.10
2018-05-26T00:27:00.868Z,85.60
2018-05-26T00:29:29.079Z,85.50
2018-05-26T00:31:57.319Z,85.30
2018-05-26T00:34:25.588Z,85.40
2018-05-26T00:36:53.771Z,86.10
2018-05-26T00:39:21.982Z,85.70
2018-05-26T00:41:50.217Z,85.60
2018-05-26T00:44:18.432Z,85.60
2018-05-26T00:46:46.676Z,85.40
2018-05-26T00:49:14.890Z,86.50
2018-05-26T00:51:43.105Z,86.80
2018-05-26T00:54:11.329Z,87.10
2018-05-26T00:56:39.542Z,87.50
2018-05-26T00:59:08.523Z,88.80
2018-05-26T01:01:37.508Z,88.90
2018-05-26T01:04:05.747Z,88.90
2018-05-26T01:06:33.961Z,88.90
2018-05-26T01:09:02.181Z,89.10
2018-05-26T01:11:30.440Z,88.80
2018-05-26T01:13:58.669Z,89.00
2018-05-26T01:16:26.891Z,89.60
2018-05-26T01:18:55.111Z,89.50
2018-05-26T01:21:23.344Z,89.50
2018-05-26T01:23:51.579Z,89.60
2018-05-26T01:26:19.783Z,89.20
2018-05-26T01:28:48.020Z,88.70
2018-05-26T01:31:16.235Z,89.00
2018-05-26T01:33:44.453Z,89.80
2018-05-26T01:36:12.683Z,90.40
2018-05-26T01:38:41.675Z,90.50
2018-05-26T01:41:10.666Z,90.60
2018-05-26T01:43:39.661Z,90.70
2018-05-26T01:46:07.877Z,90.70
2018-05-26T01:48:36.091Z,90.60
2018-05-26T01:51:04.322Z,90.60
2018-05-26T01:53:32.532Z,90.60
2018-05-26T01:56:00.760Z,90.30
2018-05-26T01:58:28.972Z,90.20
2018-05-26T02:00:57.205Z,90.70
2018-05-26T02:03:25.414Z,90.40
2018-05-26T02:05:53.690Z,90.40
2018-05-26T02:08:21.870Z,90.50
2018-05-26T02:10:50.114Z,90.60
2018-05-26T02:13:18.902Z,90.40
2018-05-26T02:15:47.122Z,90.40
2018-05-26T02:18:15.347Z,90.30
2018-05-26T02:20:43.571Z,90.30
2018-05-26T02:23:11.806Z,90.30
2018-05-26T02:25:40.019Z,90.30
2018-05-26T02:28:08.237Z,90.30
2018-05-26T02:30:36.467Z,90.30
2018-05-26T02:33:04.714Z,90.30
2018-05-26T02:35:32.937Z,90.70
2018-05-26T02:38:01.930Z,90.60
2018-05-26T02:40:30.904Z,90.60
2018-05-26T02:42:59.127Z,90.60
2018-05-26T02:45:27.830Z,90.40
2018-05-26T02:47:56.076Z,90.50
2018-05-26T02:50:25.090Z,90.70
2018-05-26T02:52:53.306Z,90.70
2018-05-26T02:55:21.506Z,91.10
2018-05-26T02:57:50.505Z,90.90
2018-05-26T03:00:19.483Z,90.80
2018-05-26T03:02:47.723Z,90.80
2018-05-26T03:05:21.563Z,90.50
2018-05-26T03:07:55.533Z,90.70
2018-05-26T03:10:29.519Z,90.70
2018-05-26T03:13:03.289Z,90.80
2018-05-26T03:15:31.519Z,90.80
2018-05-26T03:18:12.518Z,91.00
2018-05-26T03:20:40.721Z,91.00
2018-05-26T03:23:09.731Z,91.00
2018-05-26T03:25:38.716Z,91.10
2018-05-26T03:28:06.920Z,91.10
2018-05-26T03:30:35.131Z,91.40
2018-05-26T03:33:03.358Z,91.60
2018-05-26T03:35:31.558Z,91.50
2018-05-26T03:37:59.787Z,91.40
2018-05-26T03:40:28.781Z,91.30
2018-05-26T03:42:57.754Z,91.70
2018-05-26T03:45:26.003Z,91.70
2018-05-26T03:47:54.231Z,91.70
2018-05-26T03:50:22.450Z,91.70
2018-05-26T03:52:50.660Z,91.80
2018-05-26T03:55:39.515Z,91.60
2018-05-26T03:58:19.660Z,92.10
2018-05-26T04:00:47.867Z,91.90
2018-05-26T04:03:16.857Z,91.60
2018-05-26T04:05:45.854Z,91.60
2018-05-26T04:08:14.041Z,91.60
2018-05-26T04:10:42.275Z,91.60
2018-05-26T04:13:10.498Z,91.40
2018-05-26T04:15:38.724Z,91.10
2018-05-26T04:18:06.962Z,90.80
2018-05-26T04:20:35.183Z,90.60
2018-05-26T04:23:03.398Z,90.70
2018-05-26T04:25:31.628Z,90.60
2018-05-26T04:27:59.848Z,90.50
2018-05-26T04:30:28.086Z,90.50
2018-05-26T04:32:56.293Z,90.80
2018-05-26T04:35:24.510Z,90.70
2018-05-26T04:37:52.736Z,90.50
2018-05-26T04:40:20.943Z,90.70
2018-05-26T04:42:49.167Z,90.50
2018-05-26T04:45:18.163Z,90.30
2018-05-26T04:47:47.135Z,90.30
2018-05-26T04:50:15.350Z,90.30
2018-05-26T04:52:43.562Z,90.10
2018-05-26T04:55:11.818Z,90.30
2018-05-26T04:57:40.033Z,90.40
2018-05-26T05:00:08.249Z,90.30
2018-05-26T05:02:36.478Z,90.10
2018-05-26T05:05:04.698Z,90.00
2018-05-26T05:07:32.924Z,89.90
2018-05-26T05:10:01.139Z,89.90
2018-05-26T05:12:29.357Z,89.90
2018-05-26T05:14:57.604Z,90.00
2018-05-26T05:17:25.809Z,89.90
2018-05-26T05:19:54.097Z,89.90
2018-05-26T05:22:22.346Z,90.00
2018-05-26T05:24:50.581Z,90.00
2018-05-26T05:27:19.575Z,89.80
2018-05-26T05:29:48.549Z,89.60
2018-05-26T05:32:16.783Z,89.60
2018-05-26T05:34:45.005Z,89.10
2018-05-26T05:37:13.232Z,89.00
2018-05-26T05:39:41.431Z,88.30
2018-05-26T05:42:09.660Z,88.00
2018-05-26T05:44:37.876Z,87.20
2018-05-26T05:47:06.103Z,87.20
2018-05-26T05:49:35.093Z,86.90
2018-05-26T05:52:04.078Z,86.70
2018-05-26T05:54:33.077Z,86.70
2018-05-26T05:57:02.070Z,86.90
2018-05-26T05:59:31.127Z,87.00
2018-05-26T06:01:59.335Z,86.90
2018-05-26T06:04:28.342Z,87.40
2018-05-26T06:06:56.551Z,87.30
2018-05-26T06:09:24.774Z,86.90
2018-05-26T06:11:53.775Z,86.30
2018-05-26T06:14:22.764Z,86.40
2018-05-26T06:16:51.754Z,85.60
2018-05-26T06:19:20.746Z,85.00
2018-05-26T06:21:49.744Z,85.30
2018-05-26T06:24:18.751Z,85.60
2018-05-26T06:26:47.006Z,85.50
2018-05-26T06:29:15.225Z,86.00
2018-05-26T06:31:43.465Z,86.50
2018-05-26T06:34:12.473Z,87.50
2018-05-26T06:36:40.761Z,86.80
2018-05-26T06:39:08.962Z,85.50
2018-05-26T06:41:37.269Z,82.50
2018-05-26T06:44:05.498Z,77.50
2018-05-26T06:46:33.725Z,69.80
2018-05-26T06:49:01.993Z,64.70
2018-05-26T06:51:30.190Z,61.10
2018-05-26T06:53:58.524Z,57.40
2018-05-26T06:56:26.698Z,53.60
2018-05-26T06:58:54.954Z,50.50
2018-05-26T07:01:23.178Z,48.00
2018-05-26T07:03:52.226Z,44.30
2018-05-26T07:06:20.491Z,44.20
2018-05-26T07:08:48.855Z,43.10
2018-05-26T07:11:17.111Z,41.40
2018-05-26T07:13:46.087Z,36.80
2018-05-26T07:16:14.327Z,36.80
2018-05-26T07:18:42.542Z,34.60
2018-05-26T07:21:10.795Z,34.30
2018-05-26T07:23:38.986Z,34.90
2018-05-26T07:26:07.195Z,34.70
2018-05-26T07:28:35.556Z,32.60
2018-05-26T07:31:04.568Z,31.80
2018-05-26T07:33:32.813Z,31.80
2018-05-26T07:36:01.018Z,31.30
2018-05-26T07:38:29.257Z,31.10
2018-05-26T07:40:57.537Z,31.10
2018-05-26T07:43:25.745Z,29.90
2018-05-26T07:45:54.015Z,31.10
2018-05-26T07:48:23.019Z,29.80
2018-05-26T07:50:52.005Z,28.90
2018-05-26T07:53:20.979Z,28.90
2018-05-26T07:55:49.976Z,28.30
2018-05-26T07:58:19.025Z,28.20
2018-05-26T08:00:48.613Z,28.40
2018-05-26T08:03:16.858Z,28.40
2018-05-26T08:05:45.844Z,31.30
2018-05-26T08:08:14.851Z,33.90
2018-05-26T08:10:43.058Z,33.80
2018-05-26T08:13:11.287Z,35.50
2018-05-26T08:15:39.527Z,37.90
2018-05-26T08:18:07.727Z,40.70
2018-05-26T08:20:36.005Z,41.80
2018-05-26T08:23:04.199Z,44.20
2018-05-26T08:25:32.439Z,42.70
2018-05-26T08:28:00.676Z,40.90
2018-05-26T08:30:28.910Z,37.20
2018-05-26T08:32:57.923Z,31.60
2018-05-26T08:35:26.951Z,31.90
2018-05-26T08:37:55.158Z,31.90
2018-05-26T08:40:23.392Z,31.30
2018-05-26T08:42:51.613Z,32.80
2018-05-26T08:45:19.856Z,34.00
2018-05-26T08:47:48.063Z,35.20
2018-05-26T08:50:16.304Z,38.50
2018-05-26T08:52:44.547Z,41.10
2018-05-26T08:55:12.788Z,39.70
2018-05-26T08:57:41.009Z,38.90
2018-05-26T09:00:09.243Z,39.50
2018-05-26T09:02:37.478Z,40.80
2018-05-26T09:05:05.704Z,42.20
2018-05-26T09:07:34.718Z,47.90
2018-05-26T09:10:03.669Z,51.20
2018-05-26T09:12:31.932Z,50.50
2018-05-26T09:15:00.207Z,51.50
2018-05-26T09:17:29.167Z,54.20
2018-05-26T09:19:57.471Z,54.10
2018-05-26T09:22:25.731Z,55.80
2018-05-26T09:24:54.728Z,56.00
2018-05-26T09:27:22.934Z,55.90
2018-05-26T09:29:51.244Z,56.30
2018-05-26T09:32:20.230Z,55.70
2018-05-26T09:34:49.251Z,55.80
2018-05-26T09:37:17.482Z,55.70
2018-05-26T09:39:45.732Z,55.90
2018-05-26T09:42:13.947Z,54.90
2018-05-26T09:44:42.974Z,54.60
2018-05-26T09:47:11.272Z,54.60
2018-05-26T09:49:40.218Z,55.40
2018-05-26T09:52:09.225Z,55.20
2018-05-26T09:54:37.463Z,55.20
2018-05-26T09:57:05.674Z,54.10
2018-05-26T09:59:33.902Z,54.00
2018-05-26T10:02:02.167Z,54.40
2018-05-26T10:04:30.415Z,53.70
2018-05-26T10:06:58.661Z,53.30
2018-05-26T10:09:26.902Z,52.20
2018-05-26T10:11:55.140Z,52.30
2018-05-26T10:14:23.355Z,52.80
2018-05-26T10:16:51.576Z,52.40
2018-05-26T10:19:19.834Z,51.30
2018-05-26T10:21:48.835Z,51.40
2018-05-26T10:24:17.072Z,51.30
2018-05-26T10:26:45.551Z,51.40
2018-05-26T10:29:13.896Z,51.40
2018-05-26T10:31:42.114Z,52.10
2018-05-26T10:34:10.330Z,51.40
2018-05-26T10:36:38.615Z,50.60
2018-05-26T10:39:06.827Z,50.30
2018-05-26T10:41:35.065Z,49.80
2018-05-26T10:44:03.314Z,50.10
2018-05-26T10:46:31.544Z,49.70
2018-05-26T10:48:59.753Z,48.90
2018-05-26T10:51:28.781Z,49.90
2018-05-26T10:53:56.996Z,49.60
2018-05-26T10:56:25.232Z,50.90
2018-05-26T10:58:53.479Z,50.60
2018-05-26T11:01:22.474Z,49.80
2018-05-26T11:03:50.745Z,49.80
2018-05-26T11:06:18.978Z,49.90
2018-05-26T11:08:47.186Z,48.80
2018-05-26T11:11:15.409Z,48.20
2018-05-26T11:13:43.646Z,48.80
2018-05-26T11:16:12.838Z,48.80
2018-05-26T11:18:40.877Z,48.70
2018-05-26T11:21:09.109Z,48.80
2018-05-26T11:23:37.372Z,49.00
2018-05-26T11:26:05.691Z,46.90
2018-05-26T11:28:33.836Z,48.10
2018-05-26T11:31:02.108Z,49.10
2018-05-26T11:33:30.335Z,49.10
2018-05-26T11:35:58.565Z,48.90
2018-05-26T11:38:26.828Z,48.70
2018-05-26T11:40:55.794Z,48.60
2018-05-26T11:43:24.047Z,48.60
2018-05-26T11:45:52.271Z,48.80
2018-05-26T11:48:21.268Z,48.40
2018-05-26T11:50:49.504Z,48.40
2018-05-26T11:53:18.216Z,49.60
2018-05-26T11:55:46.564Z,50.30
2018-05-26T11:58:14.763Z,50.30
2018-05-26T12:00:43.848Z,49.50
2018-05-26T12:03:12.040Z,49.50
2018-05-26T12:05:40.284Z,48.50
2018-05-26T12:08:08.489Z,48.00
2018-05-26T12:10:36.739Z,47.10
2018-05-26T12:13:05.003Z,47.70
2018-05-26T12:15:33.246Z,47.20
2018-05-26T12:18:01.480Z,48.50
2018-05-26T12:20:29.746Z,48.60
2018-05-26T12:22:57.963Z,49.00
2018-05-26T12:25:26.236Z,48.20
2018-05-26T12:27:54.409Z,47.40
2018-05-26T12:30:23.414Z,47.70
2018-05-26T12:32:51.696Z,47.70
2018-05-26T12:35:20.672Z,47.70
2018-05-26T12:37:49.691Z,47.60
2018-05-26T12:40:17.924Z,47.60
2018-05-26T12:42:46.917Z,46.50
2018-05-26T12:45:15.177Z,46.50
2018-05-26T12:47:43.378Z,46.00
2018-05-26T12:50:11.686Z,46.30
2018-05-26T12:52:39.920Z,46.20
2018-05-26T12:55:08.918Z,45.70
2018-05-26T12:57:37.904Z,44.60
2018-05-26T13:00:06.157Z,44.60
2018-05-26T13:02:34.378Z,44.50
2018-05-26T13:05:02.616Z,44.80
2018-05-26T13:07:30.821Z,45.30
2018-05-26T13:09:59.782Z,45.20
2018-05-26T13:12:28.010Z,45.80
2018-05-26T13:14:56.213Z,45.30
2018-05-26T13:17:24.457Z,45.50
2018-05-26T13:19:52.672Z,45.10
2018-05-26T13:22:20.876Z,45.20
2018-05-26T13:24:49.111Z,45.30
2018-05-26T13:27:17.349Z,45.30
2018-05-26T13:29:46.379Z,45.40
2018-05-26T13:32:14.565Z,45.30
2018-05-26T13:34:42.846Z,45.60
2018-05-26T13:37:11.039Z,45.70
2018-05-26T13:39:39.246Z,45.50
2018-05-26T13:42:07.480Z,44.70
2018-05-26T13:44:35.730Z,45.20
2018-05-26T13:47:03.968Z,44.10
2018-05-26T13:49:32.274Z,45.00
2018-05-26T13:52:00.579Z,44.40
2018-05-26T13:54:29.667Z,44.40
2018-05-26T13:56:58.571Z,43.10
2018-05-26T14:02:01.822Z,43.50
2018-05-26T14:04:30.053Z,45.60
2018-05-26T14:06:58.282Z,46.80
2018-05-26T14:09:26.502Z,47.20
2018-05-26T14:11:54.728Z,45.20
2018-05-26T14:14:22.949Z,44.70
2018-05-26T14:16:51.164Z,44.70
2018-05-26T14:19:19.372Z,44.00
2018-05-26T14:21:47.610Z,44.80
2018-05-26T14:24:16.585Z,44.40
2018-05-26T14:26:44.824Z,44.30
2018-05-26T14:29:13.059Z,44.30
2018-05-26T14:31:41.299Z,44.60
2018-05-26T14:34:09.508Z,45.70
2018-05-26T14:36:38.478Z,46.40
2018-05-26T14:39:06.770Z,46.30
2018-05-26T14:41:35.751Z,46.00
2018-05-26T14:44:04.006Z,46.00
2018-05-26T14:46:32.238Z,46.50
2018-05-26T14:49:00.457Z,46.10
2018-05-26T14:51:28.718Z,45.90
2018-05-26T14:53:56.958Z,45.80
2018-05-26T14:56:25.191Z,45.80
2018-05-26T14:58:53.405Z,45.80
2018-05-26T15:01:21.653Z,45.70
2018-05-26T15:03:49.889Z,45.90
2018-05-26T15:06:18.091Z,46.40
2018-05-26T15:08:46.331Z,45.50
2018-05-26T15:11:14.539Z,45.70
2018-05-26T15:13:42.772Z,45.80
2018-05-26T15:16:10.991Z,46.30
2018-05-26T15:18:39.212Z,46.80
2018-05-26T15:21:07.423Z,47.10
2018-05-26T15:23:35.679Z,47.40
2018-05-26T15:26:03.874Z,48.00
2018-05-26T15:28:32.129Z,47.30
2018-05-26T15:31:00.362Z,47.40
2018-05-26T15:33:28.585Z,47.10
2018-05-26T15:35:56.810Z,47.60
2018-05-26T15:38:25.062Z,47.40
2018-05-26T15:40:53.361Z,47.20
2018-05-26T15:43:22.338Z,47.70
2018-05-26T15:45:50.554Z,47.70
2018-05-26T15:48:18.785Z,46.90
2018-05-26T15:50:47.144Z,46.60
2018-05-26T15:53:16.171Z,46.70
2018-05-26T15:55:44.392Z,46.70
2018-05-26T15:58:12.611Z,47.10
2018-05-26T16:00:40.848Z,47.10
2018-05-26T16:03:09.078Z,46.60
2018-05-26T16:05:37.319Z,46.40
2018-05-26T16:08:05.553Z,46.50
2018-05-26T16:10:33.782Z,46.40
2018-05-26T16:13:02.016Z,46.80
2018-05-26T16:15:30.251Z,47.00
2018-05-26T16:17:59.290Z,47.30
2018-05-26T16:20:27.525Z,47.20
2018-05-26T16:22:55.723Z,46.40
2018-05-26T16:25:23.967Z,45.70
2018-05-26T16:27:52.177Z,46.00
2018-05-26T16:30:20.412Z,45.80
2018-05-26T16:32:48.628Z,45.80
2018-05-26T16:35:16.825Z,46.10
2018-05-26T16:37:45.070Z,45.90
2018-05-26T16:40:13.291Z,45.90
2018-05-26T16:42:41.529Z,45.60
2018-05-26T16:45:09.854Z,45.60
2018-05-26T16:47:38.261Z,45.50
2018-05-26T16:50:07.258Z,45.40
2018-05-26T16:52:36.246Z,45.20
2018-05-26T16:55:04.475Z,45.20
2018-05-26T16:57:32.752Z,44.80
2018-05-26T17:00:00.977Z,45.00
2018-05-26T17:02:29.184Z,45.50
2018-05-26T17:04:57.457Z,44.40
2018-05-26T17:07:25.739Z,44.40
2018-05-26T17:09:53.977Z,44.50
2018-05-26T17:12:22.193Z,45.20
2018-05-26T17:14:50.397Z,46.30
2018-05-26T17:17:18.630Z,47.40
2018-05-26T17:19:46.865Z,49.60
2018-05-26T17:22:15.098Z,50.60
2018-05-26T17:24:43.321Z,51.80
2018-05-26T17:27:12.301Z,53.20
2018-05-26T17:29:40.553Z,53.20
2018-05-26T17:32:08.758Z,53.90
2018-05-26T17:34:37.761Z,54.80
2018-05-26T17:37:06.801Z,54.90
2018-05-26T17:39:35.110Z,54.90
2018-05-26T17:42:03.308Z,54.90
2018-05-26T17:44:32.291Z,55.60
2018-05-26T17:47:00.516Z,55.00
2018-05-26T17:49:28.787Z,55.30
2018-05-26T17:51:57.747Z,55.50
2018-05-26T17:54:26.769Z,55.50
2018-05-26T17:56:54.995Z,55.40
2018-05-26T17:59:23.250Z,55.60
2018-05-26T18:01:51.455Z,56.00
2018-05-26T18:04:20.433Z,56.10
2018-05-26T18:06:48.718Z,56.10
2018-05-26T18:09:16.914Z,56.20
2018-05-26T18:11:45.934Z,56.00
2018-05-26T18:14:14.148Z,56.00
2018-05-26T18:16:42.379Z,56.40
2018-05-26T18:19:10.598Z,56.20
2018-05-26T18:21:38.799Z,55.90
2018-05-26T18:24:07.874Z,55.90
2018-05-26T18:26:36.087Z,56.10
2018-05-26T18:29:04.357Z,55.90
2018-05-26T18:31:32.564Z,56.00
2018-05-26T18:34:01.566Z,56.20
2018-05-26T18:36:29.788Z,56.10
2018-05-26T18:38:58.063Z,56.40
2018-05-26T18:41:26.252Z,56.40
2018-05-26T18:43:54.459Z,56.80
2018-05-26T18:46:22.661Z,57.20
2018-05-26T18:48:50.895Z,57.20
2018-05-26T18:51:19.151Z,57.80
2018-05-26T18:53:47.420Z,58.10
2018-05-26T18:56:15.642Z,59.00
2018-05-26T18:58:43.879Z,59.10
2018-05-26T19:01:12.140Z,59.40
2018-05-26T19:03:40.347Z,59.30
2018-05-26T19:06:08.647Z,59.80
2018-05-26T19:08:36.895Z,60.70
2018-05-26T19:11:05.083Z,61.00
2018-05-26T19:13:33.355Z,61.60
2018-05-26T19:16:01.594Z,62.70
2018-05-26T19:18:30.609Z,63.20
2018-05-26T19:20:58.835Z,63.10
2018-05-26T19:23:27.101Z,64.00
2018-05-26T19:25:55.357Z,64.00
2018-05-26T19:28:23.578Z,64.40
2018-05-26T19:30:51.800Z,64.90
2018-05-26T19:33:20.023Z,65.20
2018-05-26T19:35:48.247Z,65.80
2018-05-26T19:38:16.451Z,65.90
2018-05-26T19:40:44.712Z,66.20
2018-05-26T19:43:12.917Z,66.60
2018-05-26T19:45:41.278Z,66.80
2018-05-26T19:48:09.539Z,67.20
2018-05-26T19:50:37.742Z,67.60
2018-05-26T19:53:06.065Z,67.90
2018-05-26T19:55:34.311Z,67.80
2018-05-26T19:58:02.538Z,67.50
2018-05-26T20:00:30.758Z,67.50
2018-05-26T20:02:58.995Z,67.40
2018-05-26T20:05:27.199Z,66.40
2018-05-26T20:07:55.470Z,66.30
2018-05-26T20:10:23.727Z,67.00
2018-05-26T20:12:51.938Z,66.30
2018-05-26T20:15:20.191Z,66.50
2018-05-26T20:17:48.396Z,66.90
2018-05-26T20:20:16.618Z,67.50
2018-05-26T20:22:44.858Z,68.00
2018-05-26T20:25:13.861Z,68.90
2018-05-26T20:27:42.081Z,68.80
2018-05-26T20:30:10.340Z,69.20
2018-05-26T20:32:38.566Z,70.10
2018-05-26T20:35:07.549Z,70.70
2018-05-26T20:37:35.786Z,70.70
2018-05-26T20:40:04.022Z,71.10
2018-05-26T20:42:33.017Z,71.20
2018-05-26T20:45:01.239Z,71.20
2018-05-26T20:47:29.503Z,71.40
2018-05-26T20:49:57.729Z,70.40
2018-05-26T20:52:26.723Z,71.00
2018-05-26T20:54:55.731Z,71.40
2018-05-26T20:57:23.975Z,71.40
2018-05-26T20:59:52.262Z,71.10
2018-05-26T21:02:20.431Z,71.00
2018-05-26T21:04:48.665Z,71.00
2018-05-26T21:07:16.857Z,71.70
2018-05-26T21:09:45.863Z,71.90
2018-05-26T21:12:14.107Z,71.90
2018-05-26T21:14:42.355Z,72.40
2018-05-26T21:17:11.325Z,72.80
2018-05-26T21:19:40.323Z,72.90
2018-05-26T21:22:09.336Z,72.80
2018-05-26T21:24:38.390Z,72.50
2018-05-26T21:27:06.560Z,72.50
2018-05-26T21:29:34.789Z,72.70
2018-05-26T21:32:03.011Z,72.70
2018-05-26T21:34:31.262Z,72.70
2018-05-26T21:36:59.489Z,72.40
2018-05-26T21:39:28.492Z,72.90
2018-05-26T21:41:57.484Z,73.20
2018-05-26T21:44:26.485Z,72.80
2018-05-26T21:46:54.695Z,72.80
2018-05-26T21:49:22.945Z,72.70
2018-05-26T21:51:51.146Z,73.70
2018-05-26T21:54:19.363Z,74.10
2018-05-26T21:56:48.374Z,75.10
2018-05-26T21:59:16.617Z,75.10
2018-05-26T22:01:44.895Z,74.60
2018-05-26T22:04:13.141Z,74.30
2018-05-26T22:06:41.377Z,74.20
2018-05-26T22:09:10.360Z,73.60
2018-05-26T22:11:39.338Z,74.10
2018-05-26T22:14:07.561Z,74.00
2018-05-26T22:16:35.877Z,75.00
2018-05-26T22:19:04.076Z,74.10
2018-05-26T22:21:33.062Z,74.50
2018-05-26T22:24:02.058Z,74.20
2018-05-26T22:26:31.043Z,74.00
2018-05-26T22:28:59.276Z,74.00
2018-05-26T22:31:27.492Z,73.90
2018-05-26T22:33:55.708Z,73.40
2018-05-26T22:36:23.930Z,73.40
2018-05-26T22:38:52.165Z,73.50
2018-05-26T22:41:20.397Z,72.70
2018-05-26T22:43:48.611Z,73.00
2018-05-26T22:46:16.843Z,73.40
2018-05-26T22:48:45.057Z,73.70
2018-05-26T22:51:13.374Z,74.80
2018-05-26T22:53:41.608Z,75.10
2018-05-26T22:56:09.864Z,75.30
2018-05-26T22:58:38.856Z,75.90
2018-05-26T23:01:07.825Z,75.50
2018-05-26T23:03:36.053Z,75.50
2018-05-26T23:06:04.281Z,76.00
2018-05-26T23:08:32.551Z,76.10
2018-05-26T23:11:00.742Z,77.30
2018-05-26T23:13:29.727Z,75.60
2018-05-26T23:15:57.955Z,75.60
2018-05-26T23:18:26.277Z,75.50
2018-05-26T23:20:54.470Z,75.40
2018-05-26T23:23:23.438Z,75.90
2018-05-26T23:25:51.666Z,75.80
2018-05-26T23:28:19.862Z,76.00
2018-05-26T23:30:48.891Z,77.10
2018-05-26T23:33:17.099Z,77.10
2018-05-26T23:35:45.325Z,77.70
2018-05-26T23:38:13.564Z,78.40
2018-05-26T23:40:41.785Z,78.30
2018-05-26T23:43:10.016Z,78.70
2018-05-26T23:45:38.239Z,78.40
2018-05-26T23:48:06.474Z,78.50
2018-05-26T23:50:34.686Z,78.90
2018-05-26T23:53:02.959Z,79.60
2018-05-26T23:55:31.157Z,79.60
2018-05-26T23:57:59.373Z,80.50
